Time;durP1;ratioP1;P1;durP2;ratioP2;P2;SDS_P1;SDS_P2;PMS_P1;PMS_P2;Temp;Humidity;BMP_temperature;BMP_pressure;BME280_temperature;BME280_humidity;BME280_pressure;Samples;Min_cycle;Max_cycle;Signal;HPM_P1;HPM_P2
2024/01/01 00:00:17;;;;;;;100.82;61.33;;;9.00;99.90;;;;;;5060141;28;20306;-50
2024/01/01 00:02:44;;;;;;;105.57;64.13;;;9.00;99.90;;;;;;5063158;28;20222;-53
2024/01/01 00:05:11;;;;;;;113.38;69.05;;;9.00;99.90;;;;;;5063267;28;20257;-50
2024/01/01 00:07:37;;;;;;;117.53;71.20;;;9.00;99.90;;;;;;5062789;28;20190;-48
2024/01/01 00:10:04;;;;;;;125.70;79.95;;;9.00;99.90;;;;;;5064249;28;20295;-49
2024/01/01 00:12:32;;;;;;;148.40;91.25;;;9.00;99.90;;;;;;5060383;28;20183;-49
2024/01/01 00:14:59;;;;;;;154.63;95.38;;;9.00;99.90;;;;;;5063239;28;20186;-53
2024/01/01 00:17:25;;;;;;;133.07;87.40;;;9.00;99.90;;;;;;5062730;28;20186;-49
2024/01/01 00:19:51;;;;;;;120.82;75.13;;;9.00;99.90;;;;;;5060917;28;20186;-52
2024/01/01 00:22:17;;;;;;;110.80;66.35;;;9.00;99.90;;;;;;5061819;28;20706;-49
2024/01/01 00:24:43;;;;;;;145.68;87.88;;;9.00;99.90;;;;;;5064021;28;20190;-50
2024/01/01 00:27:09;;;;;;;102.40;61.67;;;9.00;99.90;;;;;;5061764;28;21174;-53
2024/01/01 00:29:35;;;;;;;101.97;57.25;;;9.00;99.90;;;;;;5062427;28;20700;-49
2024/01/01 00:32:02;;;;;;;114.45;64.93;;;9.00;99.90;;;;;;5062872;28;20186;-55
2024/01/01 00:34:27;;;;;;;94.50;53.95;;;9.00;99.90;;;;;;5063590;28;20191;-52
2024/01/01 00:36:53;;;;;;;68.88;40.88;;;8.90;99.90;;;;;;5061818;28;20193;-53
2024/01/01 00:39:19;;;;;;;63.42;39.15;;;8.90;99.90;;;;;;5061783;28;20282;-52
2024/01/01 00:41:46;;;;;;;72.78;38.47;;;9.00;99.90;;;;;;5061972;28;20187;-50
2024/01/01 00:44:12;;;;;;;70.25;39.83;;;8.90;99.90;;;;;;5064393;28;20226;-48
2024/01/01 00:46:38;;;;;;;72.30;40.83;;;8.90;99.90;;;;;;5078417;28;20275;-49
2024/01/01 00:49:04;;;;;;;75.25;45.30;;;8.90;99.90;;;;;;5062307;28;20192;-51
2024/01/01 00:51:30;;;;;;;84.43;49.75;;;8.90;99.90;;;;;;5062960;28;20678;-52
2024/01/01 00:53:56;;;;;;;84.78;49.10;;;8.90;99.90;;;;;;5061553;28;20201;-52
2024/01/01 00:56:22;;;;;;;80.65;48.38;;;8.90;99.90;;;;;;5062038;28;20186;-51
2024/01/01 00:58:48;;;;;;;75.47;44.90;;;8.90;99.90;;;;;;5062844;28;20194;-54
2024/01/01 01:01:14;;;;;;;67.40;40.63;;;8.90;99.90;;;;;;5078944;28;20387;-52
2024/01/01 01:03:40;;;;;;;60.15;35.63;;;8.90;99.90;;;;;;5061932;28;20186;-52
2024/01/01 01:06:05;;;;;;;62.20;35.65;;;8.90;99.90;;;;;;5060984;28;20202;-54
2024/01/01 01:08:31;;;;;;;73.22;38.03;;;8.90;99.90;;;;;;5061839;28;20197;-47
2024/01/01 01:10:57;;;;;;;70.40;37.08;;;8.90;99.90;;;;;;5066592;28;20290;-53
2024/01/01 01:13:23;;;;;;;67.38;36.58;;;8.90;99.90;;;;;;5081117;28;20228;-52
2024/01/01 01:15:49;;;;;;;64.65;36.10;;;8.90;99.90;;;;;;5048761;28;20190;-52
2024/01/01 01:18:15;;;;;;;76.65;41.00;;;8.90;99.90;;;;;;5067802;28;20669;-48
2024/01/01 01:20:41;;;;;;;91.90;45.35;;;8.90;99.90;;;;;;5066130;28;20218;-52
2024/01/01 01:23:08;;;;;;;80.88;44.25;;;8.90;99.90;;;;;;5066418;28;20228;-49
2024/01/01 01:25:34;;;;;;;70.40;40.97;;;8.90;99.90;;;;;;5067545;28;20186;-52
2024/01/01 01:28:01;;;;;;;65.93;38.10;;;8.90;99.90;;;;;;5047620;28;20201;-53
2024/01/01 01:30:27;;;;;;;69.53;41.25;;;8.90;99.90;;;;;;5048288;28;20225;-47
2024/01/01 01:32:53;;;;;;;75.80;41.05;;;8.90;99.90;;;;;;5066664;28;20186;-50
2024/01/01 01:35:19;;;;;;;68.65;40.38;;;8.90;99.90;;;;;;5064342;28;20762;-47
2024/01/01 01:37:45;;;;;;;72.97;37.83;;;8.90;99.90;;;;;;5066377;28;20221;-53
2024/01/01 01:40:11;;;;;;;79.57;39.20;;;8.90;99.90;;;;;;5048379;28;20646;-49
2024/01/01 01:42:37;;;;;;;67.32;38.58;;;8.90;99.90;;;;;;5081513;28;20220;-48
2024/01/01 01:45:04;;;;;;;61.90;33.85;;;8.90;99.90;;;;;;5066862;28;20195;-51
2024/01/01 01:47:30;;;;;;;60.03;33.10;;;8.90;99.90;;;;;;5064743;28;20230;-51
2024/01/01 01:49:56;;;;;;;61.63;33.85;;;8.90;99.90;;;;;;5066324;28;20283;-52
2024/01/01 01:52:22;;;;;;;54.40;33.55;;;8.90;99.90;;;;;;5067374;28;21243;-53
2024/01/01 01:54:51;;;;;;;65.65;35.15;;;8.90;99.90;;;;;;5063509;28;20216;-51
2024/01/01 01:57:17;;;;;;;53.35;30.98;;;8.90;99.90;;;;;;5064442;28;20183;-50
2024/01/01 01:59:44;;;;;;;54.45;31.55;;;8.90;99.90;;;;;;5063424;28;20558;-48
2024/01/01 02:02:11;;;;;;;58.40;33.53;;;9.00;99.90;;;;;;5063510;28;20187;-45
2024/01/01 02:04:38;;;;;;;53.33;32.50;;;9.00;99.90;;;;;;5066311;28;20187;-47
2024/01/01 02:07:04;;;;;;;52.17;32.03;;;9.00;99.90;;;;;;5048622;28;20198;-55
2024/01/01 02:09:31;;;;;;;52.50;29.13;;;9.00;99.90;;;;;;5065710;28;20675;-48
2024/01/01 02:11:57;;;;;;;48.03;27.42;;;9.00;99.90;;;;;;5064359;28;20206;-48
2024/01/01 02:14:26;;;;;;;46.13;26.85;;;9.00;99.90;;;;;;5065399;28;20182;-55
2024/01/01 02:16:52;;;;;;;51.15;27.40;;;9.00;99.90;;;;;;5079803;28;20193;-49
2024/01/01 02:19:20;;;;;;;47.53;26.33;;;9.00;99.90;;;;;;5065687;28;20664;-55
2024/01/01 02:21:48;;;;;;;43.75;25.95;;;9.00;99.90;;;;;;5063729;28;21208;-52
2024/01/01 02:24:15;;;;;;;44.00;25.90;;;9.00;99.90;;;;;;5065767;28;20201;-51
2024/01/01 02:26:43;;;;;;;41.63;24.75;;;9.00;99.90;;;;;;5065351;28;20182;-48
2024/01/01 02:29:09;;;;;;;40.88;24.80;;;9.10;99.90;;;;;;5064838;28;21573;-53
2024/01/01 02:31:35;;;;;;;43.45;25.10;;;9.10;99.90;;;;;;5081463;28;20218;-51
2024/01/01 02:34:02;;;;;;;45.15;24.92;;;9.00;99.90;;;;;;5065037;28;21077;-52
2024/01/01 02:36:29;;;;;;;41.30;24.33;;;9.10;99.90;;;;;;5063427;28;20278;-51
2024/01/01 02:38:55;;;;;;;39.72;22.70;;;9.10;99.90;;;;;;5064779;28;20400;-49
2024/01/01 02:41:21;;;;;;;40.78;26.25;;;9.10;99.90;;;;;;5064350;28;20195;-50
2024/01/01 02:43:47;;;;;;;50.30;25.88;;;9.10;99.90;;;;;;5064401;28;20197;-45
2024/01/01 02:46:13;;;;;;;44.28;23.77;;;9.10;99.90;;;;;;5064275;28;20193;-54
2024/01/01 02:48:39;;;;;;;41.63;26.38;;;9.10;99.90;;;;;;5064140;28;20583;-47
2024/01/01 02:51:05;;;;;;;41.95;25.58;;;9.10;99.90;;;;;;5065135;28;20210;-45
2024/01/01 02:53:32;;;;;;;50.78;26.15;;;9.10;99.90;;;;;;5065955;28;20190;-53
2024/01/01 02:55:58;;;;;;;47.03;25.80;;;9.00;99.90;;;;;;5063862;28;20578;-49
2024/01/01 02:58:24;;;;;;;46.50;25.67;;;9.00;99.90;;;;;;5064540;28;20186;-52
2024/01/01 03:00:50;;;;;;;44.53;23.60;;;8.90;99.90;;;;;;5065624;28;20217;-53
2024/01/01 03:03:17;;;;;;;37.08;21.45;;;8.90;99.90;;;;;;5061329;28;20723;-52
2024/01/01 03:05:43;;;;;;;33.45;21.52;;;8.80;99.90;;;;;;5052157;28;20696;-50
2024/01/01 03:08:10;;;;;;;36.35;21.00;;;8.80;99.90;;;;;;5063823;28;20187;-53
2024/01/01 03:10:36;;;;;;;36.15;21.45;;;8.70;99.90;;;;;;5064097;28;20297;-49
2024/01/01 03:13:02;;;;;;;38.78;20.67;;;8.70;99.90;;;;;;5064857;28;20673;-50
2024/01/01 03:15:28;;;;;;;26.98;17.33;;;8.60;99.90;;;;;;5064757;28;20206;-50
2024/01/01 03:17:54;;;;;;;24.17;16.80;;;8.60;99.90;;;;;;5063492;28;20229;-50
2024/01/01 03:20:20;;;;;;;35.72;17.58;;;8.50;99.90;;;;;;5062922;28;20492;-55
2024/01/01 03:22:46;;;;;;;29.85;16.60;;;8.50;99.90;;;;;;5063970;28;20194;-46
2024/01/01 03:25:12;;;;;;;30.33;15.43;;;8.50;99.90;;;;;;5046487;28;20229;-52
2024/01/01 03:27:38;;;;;;;27.92;15.75;;;8.40;99.90;;;;;;5064462;28;20187;-49
2024/01/01 03:30:06;;;;;;;25.65;15.48;;;8.40;99.90;;;;;;5078482;28;20217;-49
2024/01/01 03:32:35;;;;;;;28.58;15.50;;;8.40;99.90;;;;;;5063981;28;21422;-53
2024/01/01 03:35:02;;;;;;;26.35;14.95;;;8.40;99.90;;;;;;5053263;28;20225;-49
2024/01/01 03:37:28;;;;;;;31.85;15.82;;;8.40;99.90;;;;;;5062344;28;20190;-51
2024/01/01 03:39:54;;;;;;;28.15;14.73;;;8.40;99.90;;;;;;5079803;28;20212;-49
2024/01/01 03:42:20;;;;;;;29.48;15.85;;;8.40;99.90;;;;;;5064685;28;20209;-49
2024/01/01 03:44:46;;;;;;;28.33;15.02;;;8.30;99.90;;;;;;5057510;28;20202;-53
2024/01/01 03:47:12;;;;;;;29.00;14.65;;;8.30;99.90;;;;;;5062989;28;20230;-51
2024/01/01 03:49:39;;;;;;;26.90;15.40;;;8.30;99.90;;;;;;5047753;28;20197;-50
2024/01/01 03:52:05;;;;;;;27.00;13.70;;;8.40;99.90;;;;;;5062784;28;20178;-47
2024/01/01 03:54:31;;;;;;;24.98;13.13;;;8.30;99.90;;;;;;5063191;28;20200;-49
2024/01/01 03:56:57;;;;;;;25.38;12.38;;;8.30;99.90;;;;;;5062130;28;20697;-50
2024/01/01 03:59:24;;;;;;;24.25;12.85;;;8.30;99.90;;;;;;5063453;28;20601;-50
2024/01/01 04:01:50;;;;;;;22.65;11.55;;;8.30;99.90;;;;;;5062964;28;20255;-52
2024/01/01 04:04:15;;;;;;;21.40;11.32;;;8.30;99.90;;;;;;5032655;28;20281;-53
2024/01/01 04:06:41;;;;;;;19.48;10.15;;;8.30;99.90;;;;;;5045051;28;20310;-47
2024/01/01 04:09:07;;;;;;;22.40;10.88;;;8.30;99.90;;;;;;5062594;28;20236;-51
2024/01/01 04:11:33;;;;;;;17.73;9.25;;;8.20;99.90;;;;;;5062447;28;20229;-49
2024/01/01 04:14:00;;;;;;;16.17;7.85;;;8.20;99.90;;;;;;5063728;28;20174;-49
2024/01/01 04:16:26;;;;;;;17.88;8.25;;;8.20;99.90;;;;;;5063893;28;20659;-51
2024/01/01 04:18:51;;;;;;;16.95;7.75;;;8.20;99.90;;;;;;5060892;28;20226;-51
2024/01/01 04:21:17;;;;;;;15.65;7.93;;;8.10;99.90;;;;;;5062276;28;20198;-49
2024/01/01 04:23:43;;;;;;;15.95;7.20;;;8.20;99.90;;;;;;5064698;28;20337;-51
2024/01/01 04:26:09;;;;;;;18.52;7.10;;;8.10;99.90;;;;;;5061333;28;20191;-49
2024/01/01 04:28:35;;;;;;;13.43;7.28;;;8.20;99.90;;;;;;5063511;28;20204;-49
2024/01/01 04:31:01;;;;;;;15.68;6.97;;;8.20;99.90;;;;;;5062812;28;20268;-50
2024/01/01 04:33:27;;;;;;;16.43;6.50;;;8.10;99.90;;;;;;5062548;28;20479;-49
2024/01/01 04:35:53;;;;;;;16.08;6.25;;;8.20;99.90;;;;;;5064383;28;20187;-49
2024/01/01 04:38:18;;;;;;;14.63;5.20;;;8.20;99.90;;;;;;5062695;28;20179;-50
2024/01/01 04:40:44;;;;;;;12.23;5.20;;;8.20;99.90;;;;;;5061613;28;20198;-54
2024/01/01 04:43:10;;;;;;;13.30;5.18;;;8.20;99.90;;;;;;5062194;28;20194;-51
2024/01/01 04:45:37;;;;;;;11.75;4.75;;;8.10;99.90;;;;;;5060241;28;20277;-51
2024/01/01 04:48:04;;;;;;;12.63;4.25;;;8.10;99.90;;;;;;5061025;28;21187;-54
2024/01/01 04:50:33;;;;;;;14.73;5.03;;;8.10;99.90;;;;;;5064310;28;20270;-49
2024/01/01 04:52:59;;;;;;;13.80;4.85;;;8.10;99.90;;;;;;5062605;28;20192;-49
2024/01/01 04:55:25;;;;;;;11.57;4.47;;;8.10;99.90;;;;;;5063079;28;20562;-49
2024/01/01 04:57:51;;;;;;;11.48;4.43;;;8.10;99.90;;;;;;5061678;28;20190;-48
2024/01/01 05:00:17;;;;;;;9.38;4.00;;;8.10;99.90;;;;;;5062680;28;20190;-45
2024/01/01 05:02:43;;;;;;;8.98;4.15;;;8.10;99.90;;;;;;5062990;28;20203;-46
2024/01/01 05:05:08;;;;;;;13.15;3.92;;;8.10;99.90;;;;;;5062421;28;20237;-50
2024/01/01 05:07:38;;;;;;;9.98;3.83;;;8.10;99.90;;;;;;5062561;28;20194;-49
2024/01/01 05:10:04;;;;;;;15.63;4.30;;;8.10;99.90;;;;;;5063223;28;20210;-49
2024/01/01 05:12:30;;;;;;;12.55;3.78;;;8.10;99.90;;;;;;5061442;28;20186;-48
2024/01/01 05:14:56;;;;;;;10.95;3.55;;;8.10;99.90;;;;;;5062409;28;20221;-53
2024/01/01 05:17:23;;;;;;;9.82;3.72;;;8.10;99.90;;;;;;5064041;28;22084;-48
2024/01/01 05:19:50;;;;;;;10.52;3.72;;;8.10;99.90;;;;;;5061421;28;20270;-53
2024/01/01 05:22:16;;;;;;;9.85;3.53;;;8.10;99.90;;;;;;5062744;28;20603;-49
2024/01/01 05:24:42;;;;;;;6.78;3.70;;;8.10;99.90;;;;;;5062326;28;20194;-51
2024/01/01 05:27:09;;;;;;;11.80;4.50;;;8.10;99.90;;;;;;5061850;28;20280;-46
2024/01/01 05:29:35;;;;;;;15.52;5.20;;;8.10;99.90;;;;;;5058961;28;20629;-51
2024/01/01 05:32:01;;;;;;;19.73;7.18;;;8.10;99.90;;;;;;5062696;28;20183;-51
2024/01/01 05:34:27;;;;;;;13.02;4.88;;;8.10;99.90;;;;;;5061827;28;20182;-49
2024/01/01 05:36:53;;;;;;;15.40;4.47;;;8.10;99.90;;;;;;5062584;28;20195;-53
2024/01/01 05:39:19;;;;;;;9.68;4.28;;;8.20;99.90;;;;;;5060368;28;20191;-54
2024/01/01 05:41:45;;;;;;;11.30;4.05;;;8.10;99.90;;;;;;5061330;28;20186;-52
2024/01/01 05:44:11;;;;;;;8.57;3.67;;;8.10;99.90;;;;;;5060643;28;20563;-52
2024/01/01 05:46:37;;;;;;;8.70;4.00;;;8.20;99.90;;;;;;5058874;28;20507;-52
2024/01/01 05:49:02;;;;;;;12.20;3.38;;;8.10;99.90;;;;;;5061559;28;20186;-49
2024/01/01 05:51:28;;;;;;;9.20;3.53;;;8.20;99.90;;;;;;5062845;28;20206;-52
2024/01/01 05:53:57;;;;;;;8.98;3.60;;;8.20;99.90;;;;;;5060993;28;20235;-51
2024/01/01 05:56:24;;;;;;;12.07;3.67;;;8.20;99.90;;;;;;5061615;28;20184;-50
2024/01/01 05:58:50;;;;;;;13.23;3.83;;;8.10;99.90;;;;;;5065049;28;20562;-50
2024/01/01 06:01:17;;;;;;;15.07;3.80;;;8.10;99.90;;;;;;5062909;28;20194;-48
2024/01/01 06:03:44;;;;;;;7.95;3.45;;;8.10;99.90;;;;;;5064443;28;20206;-51
2024/01/01 06:06:10;;;;;;;12.38;3.40;;;8.10;99.90;;;;;;5066491;28;20194;-48
2024/01/01 06:08:36;;;;;;;8.05;3.28;;;8.10;99.90;;;;;;5063767;28;20183;-42
2024/01/01 06:11:02;;;;;;;11.52;3.75;;;8.20;99.90;;;;;;5064096;28;20265;-50
2024/01/01 06:13:28;;;;;;;10.30;3.75;;;8.20;99.90;;;;;;5065764;28;20190;-52
2024/01/01 06:15:54;;;;;;;8.95;3.45;;;8.20;99.90;;;;;;5063479;28;20553;-51
2024/01/01 06:18:20;;;;;;;10.98;3.30;;;8.20;99.90;;;;;;5064035;28;20657;-52
2024/01/01 06:20:46;;;;;;;8.15;3.50;;;8.20;99.90;;;;;;5064679;28;20201;-47
2024/01/01 06:23:12;;;;;;;11.20;3.50;;;8.10;99.90;;;;;;5064388;28;20198;-51
2024/01/01 06:25:38;;;;;;;9.82;3.25;;;8.20;99.90;;;;;;5065272;28;20191;-53
2024/01/01 06:28:04;;;;;;;11.70;3.53;;;8.20;99.90;;;;;;5064496;28;20199;-51
2024/01/01 06:30:34;;;;;;;13.95;3.50;;;8.20;99.90;;;;;;5065035;28;20218;-50
2024/01/01 06:33:02;;;;;;;12.50;3.80;;;8.30;99.90;;;;;;5063753;28;20202;-49
2024/01/01 06:35:30;;;;;;;11.52;3.67;;;8.20;99.90;;;;;;5063699;28;20186;-51
2024/01/01 06:37:58;;;;;;;11.02;3.35;;;8.20;99.90;;;;;;5065159;28;20190;-49
2024/01/01 06:40:25;;;;;;;7.63;3.00;;;8.20;99.90;;;;;;5065681;28;20262;-50
2024/01/01 06:42:51;;;;;;;11.88;2.90;;;8.30;99.90;;;;;;5063652;28;20179;-48
2024/01/01 06:45:17;;;;;;;8.98;2.80;;;8.30;99.90;;;;;;5063825;28;20194;-53
2024/01/01 06:47:43;;;;;;;11.80;2.88;;;8.30;99.90;;;;;;5065857;28;20229;-51
2024/01/01 06:50:09;;;;;;;12.45;3.30;;;8.30;99.90;;;;;;5062648;28;21064;-46
2024/01/01 06:52:35;;;;;;;8.45;3.03;;;8.30;99.90;;;;;;5064179;28;20192;-50
2024/01/01 06:55:01;;;;;;;12.07;3.47;;;8.30;99.90;;;;;;5064850;28;20650;-52
2024/01/01 06:57:27;;;;;;;17.58;4.40;;;8.30;99.90;;;;;;5063758;28;20182;-49
2024/01/01 06:59:54;;;;;;;13.27;3.85;;;8.40;99.90;;;;;;5063623;28;20195;-49
2024/01/01 07:02:20;;;;;;;12.88;3.75;;;8.40;99.90;;;;;;5064978;28;20193;-48
2024/01/01 07:04:46;;;;;;;10.40;3.65;;;8.40;99.90;;;;;;5063295;28;20260;-45
2024/01/01 07:07:17;;;;;;;11.13;3.50;;;8.40;99.90;;;;;;5063309;28;20186;-50
2024/01/01 07:09:43;;;;;;;14.48;3.78;;;8.40;99.90;;;;;;5062375;28;20213;-53
2024/01/01 07:12:25;;;;;;;10.38;3.70;;;8.40;99.90;;;;;;5064097;28;20731;-48
2024/01/01 07:14:51;;;;;;;9.30;3.47;;;8.40;99.90;;;;;;5064399;28;20907;-52
2024/01/01 07:17:19;;;;;;;9.23;3.28;;;8.40;99.90;;;;;;5063772;28;20191;-50
2024/01/01 07:19:45;;;;;;;8.52;3.33;;;8.40;99.90;;;;;;5062497;28;20248;-54
2024/01/01 07:22:11;;;;;;;12.50;3.95;;;8.40;99.90;;;;;;5063331;28;20205;-48
2024/01/01 07:24:37;;;;;;;12.32;3.80;;;8.40;99.90;;;;;;5061411;28;20269;-46
2024/01/01 07:27:04;;;;;;;12.07;3.97;;;8.40;99.90;;;;;;5064070;28;20186;-46
2024/01/01 07:29:30;;;;;;;12.80;3.67;;;8.40;99.90;;;;;;5062675;28;20558;-48
2024/01/01 07:31:56;;;;;;;12.10;3.72;;;8.40;99.90;;;;;;5063575;28;20240;-45
2024/01/01 07:34:23;;;;;;;11.40;3.20;;;8.40;99.90;;;;;;5063400;28;20193;-47
2024/01/01 07:36:49;;;;;;;9.35;2.85;;;8.30;99.90;;;;;;5060496;28;20255;-50
2024/01/01 07:39:23;;;;;;;9.38;1.90;;;8.30;99.90;;;;;;5062268;28;20190;-52
2024/01/01 07:41:50;;;;;;;7.97;2.67;;;8.20;99.90;;;;;;5063047;28;20220;-54
2024/01/01 07:44:16;;;;;;;8.10;2.33;;;8.00;99.90;;;;;;5060970;28;20623;-46
2024/01/01 07:46:42;;;;;;;7.88;2.05;;;8.00;99.90;;;;;;5061505;28;20345;-46
2024/01/01 07:49:08;;;;;;;5.38;1.83;;;7.90;99.90;;;;;;5063665;28;20184;-53
2024/01/01 07:51:35;;;;;;;5.57;1.80;;;7.80;99.90;;;;;;5062511;28;20582;-50
2024/01/01 07:54:01;;;;;;;4.90;1.83;;;7.70;99.90;;;;;;5062199;28;20190;-53
2024/01/01 07:56:28;;;;;;;5.45;1.50;;;7.60;99.90;;;;;;5062243;28;20273;-47
2024/01/01 07:58:53;;;;;;;3.95;1.50;;;7.60;99.90;;;;;;5049330;28;20615;-46
2024/01/01 08:01:20;;;;;;;3.20;1.25;;;7.50;99.90;;;;;;5063815;28;20280;-48
2024/01/01 08:03:46;;;;;;;4.20;1.20;;;7.40;99.90;;;;;;5062896;28;20197;-48
2024/01/01 08:06:12;;;;;;;7.28;1.50;;;7.40;99.90;;;;;;5062689;28;20183;-50
2024/01/01 08:08:39;;;;;;;5.90;1.40;;;7.40;99.90;;;;;;5063091;28;20190;-53
2024/01/01 08:11:06;;;;;;;3.00;1.50;;;7.30;99.90;;;;;;5061975;28;20589;-48
2024/01/01 08:13:32;;;;;;;6.35;3.15;;;7.30;99.90;;;;;;5059969;28;20205;-47
2024/01/01 08:15:59;;;;;;;7.57;2.80;;;7.30;99.90;;;;;;5061599;28;20182;-48
2024/01/01 08:18:25;;;;;;;6.15;1.83;;;7.30;99.90;;;;;;5060837;28;20190;-52
2024/01/01 08:20:51;;;;;;;8.57;1.90;;;7.30;99.90;;;;;;5041232;28;20210;-50
2024/01/01 08:23:17;;;;;;;5.90;1.67;;;7.30;99.90;;;;;;5059543;28;20190;-52
2024/01/01 08:25:43;;;;;;;6.47;1.90;;;7.30;99.90;;;;;;5062839;28;20215;-54
2024/01/01 08:28:09;;;;;;;3.55;1.73;;;7.30;99.90;;;;;;5060861;28;20194;-48
2024/01/01 08:30:35;;;;;;;6.40;1.98;;;7.40;99.90;;;;;;5059996;28;20217;-50
2024/01/01 08:33:01;;;;;;;7.75;2.03;;;7.40;99.90;;;;;;5061211;28;20239;-49
2024/01/01 08:35:26;;;;;;;7.95;2.13;;;7.40;99.90;;;;;;5061363;28;20222;-49
2024/01/01 08:37:53;;;;;;;8.93;2.50;;;7.40;99.90;;;;;;5060950;28;20182;-50
2024/01/01 08:40:19;;;;;;;8.63;2.25;;;7.40;99.90;;;;;;5059664;28;20209;-52
2024/01/01 08:42:47;;;;;;;6.18;2.70;;;7.50;99.90;;;;;;5062153;28;20191;-43
2024/01/01 08:45:13;;;;;;;9.80;2.33;;;7.50;99.90;;;;;;5061116;28;20186;-50
2024/01/01 08:47:40;;;;;;;7.15;2.25;;;7.50;99.90;;;;;;5060047;28;20253;-51
2024/01/01 08:50:07;;;;;;;10.93;2.75;;;7.50;99.90;;;;;;5061176;28;20721;-44
2024/01/01 08:52:32;;;;;;;6.80;2.08;;;7.50;99.90;;;;;;5060965;28;20552;-48
2024/01/01 08:54:58;;;;;;;18.90;6.88;;;7.60;99.90;;;;;;5060723;28;20202;-44
2024/01/01 08:57:24;;;;;;;7.10;2.28;;;7.60;99.90;;;;;;5061047;28;20175;-45
2024/01/01 08:59:50;;;;;;;9.05;2.40;;;7.60;99.90;;;;;;5062266;28;20201;-46
2024/01/01 09:02:16;;;;;;;6.68;2.22;;;7.60;99.90;;;;;;5060108;28;20651;-50
2024/01/01 09:04:42;;;;;;;7.88;2.35;;;7.60;99.90;;;;;;5061308;28;20190;-52
2024/01/01 09:07:08;;;;;;;6.32;1.95;;;7.60;99.90;;;;;;5060419;28;20182;-46
2024/01/01 09:09:34;;;;;;;9.13;2.00;;;7.60;99.90;;;;;;5056836;28;20191;-52
2024/01/01 09:12:00;;;;;;;8.27;2.05;;;7.60;99.90;;;;;;5060257;28;20239;-45
2024/01/01 09:14:26;;;;;;;6.60;2.08;;;7.60;99.90;;;;;;5060818;28;20187;-49
2024/01/01 09:16:52;;;;;;;7.20;1.67;;;7.60;99.90;;;;;;5062429;28;20221;-48
2024/01/01 09:19:17;;;;;;;4.93;1.80;;;7.60;99.90;;;;;;5060166;28;20245;-47
2024/01/01 09:21:44;;;;;;;6.20;1.75;;;7.50;99.90;;;;;;5059143;28;20327;-46
2024/01/01 09:24:10;;;;;;;3.78;1.50;;;7.50;99.90;;;;;;5062760;28;20539;-52
2024/01/01 09:26:37;;;;;;;7.85;2.13;;;7.40;99.90;;;;;;5059514;28;20197;-48
2024/01/01 09:29:04;;;;;;;5.28;1.85;;;7.40;99.90;;;;;;5061870;28;20265;-48
2024/01/01 09:31:33;;;;;;;7.78;2.13;;;7.40;99.90;;;;;;5064417;28;20206;-54
2024/01/01 09:34:06;;;;;;;9.55;2.22;;;7.40;99.90;;;;;;5065304;28;20183;-49
2024/01/01 09:36:32;;;;;;;5.18;2.05;;;7.30;99.90;;;;;;5065495;28;20185;-49
2024/01/01 09:38:58;;;;;;;7.25;2.17;;;7.30;99.90;;;;;;5083217;28;20179;-49
2024/01/01 09:41:25;;;;;;;6.03;2.10;;;7.30;99.90;;;;;;5065774;28;20198;-44
2024/01/01 09:43:52;;;;;;;5.93;1.75;;;7.30;99.90;;;;;;5065562;28;20186;-49
2024/01/01 09:46:18;;;;;;;4.72;1.40;;;7.30;99.90;;;;;;5065591;28;20290;-52
2024/01/01 09:48:45;;;;;;;5.75;1.90;;;7.20;99.90;;;;;;5066213;28;20208;-53
2024/01/01 09:51:11;;;;;;;4.28;1.25;;;7.20;99.90;;;;;;5066219;28;20232;-48
2024/01/01 09:53:37;;;;;;;5.55;1.45;;;7.20;99.90;;;;;;5065930;28;20190;-51
2024/01/01 09:56:03;;;;;;;7.90;1.60;;;7.10;99.90;;;;;;5065004;28;20220;-51
2024/01/01 09:58:42;;;;;;;5.75;1.95;;;7.20;99.90;;;;;;5064248;28;20240;-48
2024/01/01 10:01:12;;;;;;;9.98;2.83;;;7.20;99.90;;;;;;5064799;28;20249;-50
2024/01/01 10:03:39;;;;;;;5.18;1.65;;;7.20;99.90;;;;;;5066275;28;20182;-52
2024/01/01 10:06:10;;;;;;;7.75;1.98;;;7.20;99.90;;;;;;5066543;28;20183;-50
2024/01/01 10:08:37;;;;;;;12.05;1.60;;;7.20;99.90;;;;;;5063509;28;20339;-45
2024/01/01 10:11:20;;;;;;;8.00;1.83;;;7.20;99.90;;;;;;5065612;28;20221;-51
2024/01/01 10:13:47;;;;;;;7.63;1.83;;;7.20;99.90;;;;;;5066032;28;20213;-48
2024/01/01 10:16:26;;;;;;;8.05;1.85;;;7.20;99.90;;;;;;5063954;28;20340;-52
2024/01/01 10:18:57;;;;;;;6.50;1.80;;;7.20;99.90;;;;;;5065631;28;20178;-47
2024/01/01 10:21:41;;;;;;;4.78;1.90;;;7.20;99.90;;;;;;5065296;28;20187;-44
2024/01/01 10:24:19;;;;;;;7.78;2.20;;;7.20;99.90;;;;;;5064701;28;20662;-45
2024/01/01 10:26:48;;;;;;;10.55;2.17;;;7.30;99.90;;;;;;5065620;28;20307;-45
2024/01/01 10:29:16;;;;;;;13.15;2.40;;;7.30;99.90;;;;;;5063176;28;20228;-49
2024/01/01 10:31:47;;;;;;;15.60;3.00;;;7.40;99.90;;;;;;5064398;28;20579;-47
2024/01/01 10:34:13;;;;;;;11.38;2.80;;;7.40;99.90;;;;;;5065947;28;20186;-51
2024/01/01 10:36:43;;;;;;;14.05;2.92;;;7.50;99.90;;;;;;5064877;28;20187;-46
2024/01/01 10:39:09;;;;;;;12.95;3.28;;;7.50;99.90;;;;;;5062504;28;20244;-46
2024/01/01 10:41:37;;;;;;;18.67;3.00;;;7.60;99.90;;;;;;5063988;28;20552;-51
2024/01/01 10:44:04;;;;;;;21.10;3.05;;;7.60;99.90;;;;;;5060232;28;20214;-47
2024/01/01 10:46:34;;;;;;;17.70;2.80;;;7.70;99.90;;;;;;5062247;28;20197;-51
2024/01/01 10:49:02;;;;;;;16.65;2.72;;;7.70;99.90;;;;;;5064439;28;20198;-49
2024/01/01 10:51:42;;;;;;;21.27;3.38;;;7.80;99.90;;;;;;5061861;28;20206;-47
2024/01/01 10:54:36;;;;;;;21.20;2.95;;;7.80;99.90;;;;;;5061539;28;20269;-52
2024/01/01 10:57:30;;;;;;;15.27;3.10;;;7.90;99.90;;;;;;5064108;28;20183;-51
2024/01/01 11:00:00;;;;;;;18.33;3.25;;;7.90;99.90;;;;;;5062500;28;20191;-52
2024/01/01 11:02:27;;;;;;;12.27;3.20;;;8.00;99.90;;;;;;5063883;28;20190;-48
2024/01/01 11:05:10;;;;;;;19.95;3.10;;;8.10;99.90;;;;;;5063362;28;20178;-49
2024/01/01 11:07:54;;;;;;;24.02;3.40;;;8.20;99.90;;;;;;5063505;28;20183;-49
2024/01/01 11:10:34;;;;;;;26.38;4.57;;;8.20;99.90;;;;;;5032374;28;20210;-45
2024/01/01 11:13:00;;;;;;;18.67;4.28;;;8.20;99.90;;;;;;5060077;28;20639;-49
2024/01/01 11:15:42;;;;;;;15.10;3.13;;;8.30;99.90;;;;;;5063321;28;20179;-48
2024/01/01 11:18:14;;;;;;;13.18;2.85;;;8.30;99.90;;;;;;5061940;28;20210;-50
2024/01/01 11:20:50;;;;;;;17.48;3.20;;;8.30;99.90;;;;;;5062631;28;20197;-54
2024/01/01 11:23:45;;;;;;;15.75;3.10;;;8.30;99.90;;;;;;5062773;28;20723;-51
2024/01/01 11:26:43;;;;;;;13.57;2.80;;;8.20;99.90;;;;;;5061518;28;20290;-51
2024/01/01 11:29:18;;;;;;;16.00;3.47;;;8.30;99.90;;;;;;5061810;28;20218;-51
2024/01/01 11:31:44;;;;;;;15.40;2.80;;;8.20;99.90;;;;;;5063144;28;20216;-52
2024/01/01 11:34:16;;;;;;;14.50;2.85;;;8.20;99.90;;;;;;5060350;28;20548;-48
2024/01/01 11:36:42;;;;;;;17.83;3.33;;;8.20;99.90;;;;;;5062772;28;20335;-47
2024/01/01 11:39:08;;;;;;;15.52;3.20;;;8.30;99.90;;;;;;5063079;28;20192;-46
2024/01/01 11:41:34;;;;;;;18.05;3.13;;;8.30;99.90;;;;;;5061278;28;21161;-53
2024/01/01 11:44:18;;;;;;;13.02;2.53;;;8.30;99.90;;;;;;5062462;28;20197;-51
2024/01/01 11:46:46;;;;;;;18.55;3.05;;;8.30;99.90;;;;;;5046227;28;20222;-49
2024/01/01 11:49:12;;;;;;;10.93;2.20;;;8.30;99.90;;;;;;5062754;28;20213;-53
2024/01/01 11:51:49;;;;;;;12.60;2.10;;;8.30;99.90;;;;;;5060003;28;20673;-48
2024/01/01 11:54:15;;;;;;;8.15;2.15;;;8.20;99.90;;;;;;5061079;28;20179;-54
2024/01/01 11:56:41;;;;;;;9.65;2.15;;;8.20;99.90;;;;;;5063118;28;20178;-53
2024/01/01 11:59:07;;;;;;;12.68;2.55;;;8.20;99.90;;;;;;5060931;28;21097;-49
2024/01/01 12:01:36;;;;;;;13.15;2.67;;;8.20;99.90;;;;;;5060662;28;20398;-47
2024/01/01 12:04:06;;;;;;;15.45;2.47;;;8.30;99.90;;;;;;5062694;28;20565;-45
2024/01/01 12:06:33;;;;;;;18.92;3.40;;;8.40;99.90;;;;;;5060314;28;20197;-53
2024/01/01 12:09:12;;;;;;;16.83;3.13;;;8.50;99.90;;;;;;5060227;28;20189;-50
2024/01/01 12:11:39;;;;;;;21.75;3.13;;;8.50;99.90;;;;;;5046766;28;20210;-53
2024/01/01 12:14:05;;;;;;;18.30;3.22;;;8.60;99.90;;;;;;5044571;28;20201;-46
2024/01/01 12:16:36;;;;;;;19.20;2.95;;;8.70;99.90;;;;;;5060887;28;20190;-46
2024/01/01 12:19:04;;;;;;;16.38;2.90;;;8.70;99.90;;;;;;5059922;28;20529;-52
2024/01/01 12:21:41;;;;;;;15.93;3.25;;;8.70;99.90;;;;;;5061547;28;20187;-51
2024/01/01 12:24:09;;;;;;;13.13;3.03;;;8.80;99.90;;;;;;5060269;28;21074;-48
2024/01/01 12:26:35;;;;;;;21.00;3.70;;;8.80;99.90;;;;;;5060220;28;20186;-53
2024/01/01 12:29:11;;;;;;;14.18;2.95;;;8.90;99.90;;;;;;5060778;28;20190;-50
2024/01/01 12:31:38;;;;;;;14.52;2.97;;;9.00;99.90;;;;;;5062750;28;20846;-51
2024/01/01 12:34:07;;;;;;;18.77;2.90;;;9.00;99.90;;;;;;5060132;28;20235;-46
2024/01/01 12:36:33;;;;;;;14.48;2.83;;;9.10;99.90;;;;;;5061862;28;20186;-49
2024/01/01 12:39:00;;;;;;;7.20;2.20;;;9.20;99.90;;;;;;5062136;28;20186;-49
2024/01/01 12:41:26;;;;;;;14.63;2.78;;;9.40;99.90;;;;;;5058964;28;20743;-50
2024/01/01 12:43:52;;;;;;;13.95;2.97;;;9.50;99.90;;;;;;5061616;28;20194;-51
2024/01/01 12:46:18;;;;;;;15.38;2.40;;;9.50;99.90;;;;;;5042532;28;20220;-45